createdAt,value
2023-02-11T00:00:04.741Z,97.72
2023-02-11T00:00:15.254Z,97.62
2023-02-11T00:00:25.760Z,97.62
2023-02-11T00:00:36.250Z,97.62
2023-02-11T00:00:46.788Z,97.52
2023-02-11T00:00:57.262Z,97.52
2023-02-11T00:01:07.755Z,97.52
2023-02-11T00:01:18.280Z,97.41
2023-02-11T00:01:28.779Z,97.41
2023-02-11T00:01:39.773Z,97.41
2023-02-11T00:01:50.288Z,97.41
2023-02-11T00:02:01.318Z,97.41
2023-02-11T00:02:12.294Z,97.41
2023-02-11T00:02:22.823Z,97.41
2023-02-11T00:02:33.389Z,97.31
2023-02-11T00:02:46.061Z,97.31
2023-02-11T00:02:54.765Z,97.31
2023-02-11T00:03:05.276Z,97.31
2023-02-11T00:03:15.795Z,97.31
2023-02-11T00:03:26.365Z,97.31
2023-02-11T00:03:36.848Z,97.31
2023-02-11T00:03:47.289Z,97.31
2023-02-11T00:03:57.780Z,97.31
2023-02-11T00:04:08.259Z,97.31
2023-02-11T00:04:19.265Z,97.31
2023-02-11T00:04:30.280Z,97.31
2023-02-11T00:04:40.790Z,97.31
2023-02-11T00:04:51.254Z,97.31
2023-02-11T00:05:01.748Z,97.31
2023-02-11T00:05:12.284Z,97.31
2023-02-11T00:05:22.759Z,97.31
2023-02-11T00:05:33.488Z,97.20
2023-02-11T00:05:43.748Z,97.20
2023-02-11T00:05:54.250Z,97.20
2023-02-11T00:06:04.760Z,97.20
2023-02-11T00:06:15.261Z,97.31
2023-02-11T00:06:25.753Z,97.31
2023-02-11T00:06:36.262Z,97.20
2023-02-11T00:06:46.758Z,97.20
2023-02-11T00:06:57.260Z,97.20
2023-02-11T00:07:08.260Z,97.20
2023-02-11T00:07:19.266Z,97.20
2023-02-11T00:07:29.759Z,97.20
2023-02-11T00:07:40.260Z,97.20
2023-02-11T00:07:50.760Z,97.10
2023-02-11T00:08:01.264Z,97.10
2023-02-11T00:08:11.761Z,97.10
2023-02-11T00:08:22.267Z,97.10
2023-02-11T00:08:33.269Z,97.10
2023-02-11T00:08:44.276Z,97.10
2023-02-11T00:08:54.769Z,97.00
2023-02-11T00:09:05.268Z,97.00
2023-02-11T00:09:15.774Z,97.00
2023-02-11T00:09:26.266Z,96.89
2023-02-11T00:09:36.809Z,96.89
2023-02-11T00:09:47.282Z,96.89
2023-02-11T00:09:58.270Z,96.89
2023-02-11T00:10:09.308Z,96.89
2023-02-11T00:10:19.770Z,96.89
2023-02-11T00:10:30.772Z,96.89
2023-02-11T00:10:41.766Z,97.00
2023-02-11T00:10:52.773Z,97.00
2023-02-11T00:11:03.270Z,97.00
2023-02-11T00:11:13.777Z,97.00
2023-02-11T00:11:24.295Z,97.00
2023-02-11T00:11:35.280Z,97.00
2023-02-11T00:11:45.774Z,97.00
2023-02-11T00:11:56.277Z,97.00
2023-02-11T00:12:06.766Z,97.00
2023-02-11T00:12:17.277Z,97.00
2023-02-11T00:12:27.772Z,97.00
2023-02-11T00:12:38.280Z,97.00
2023-02-11T00:12:48.774Z,97.10
2023-02-11T00:12:59.280Z,97.16
2023-02-11T00:13:09.778Z,97.27
2023-02-11T00:13:20.776Z,97.27
2023-02-11T00:13:31.286Z,97.27
2023-02-11T00:13:41.784Z,97.27
2023-02-11T00:13:52.295Z,97.27
2023-02-11T00:14:03.295Z,97.16
2023-02-11T00:14:13.780Z,97.16
2023-02-11T00:14:24.293Z,97.16
2023-02-11T00:14:34.793Z,97.06
2023-02-11T00:14:45.353Z,97.06
2023-02-11T00:14:55.791Z,97.06
2023-02-11T00:15:06.291Z,96.95
2023-02-11T00:15:16.795Z,96.95
2023-02-11T00:15:27.316Z,96.95
2023-02-11T00:15:38.296Z,96.95
2023-02-11T00:15:49.256Z,96.95
2023-02-11T00:15:59.790Z,96.85
2023-02-11T00:16:10.385Z,96.85
2023-02-11T00:16:20.866Z,96.85
2023-02-11T00:16:31.410Z,96.85
2023-02-11T00:16:41.842Z,96.85
2023-02-11T00:16:52.361Z,96.85
2023-02-11T00:17:02.867Z,96.85
2023-02-11T00:17:13.311Z,96.85
2023-02-11T00:17:23.827Z,96.85
2023-02-11T00:17:34.310Z,96.85
2023-02-11T00:17:44.803Z,96.85
2023-02-11T00:17:55.318Z,96.85
2023-02-11T00:18:05.812Z,96.85
2023-02-11T00:18:16.315Z,96.85
2023-02-11T00:18:26.815Z,96.85
2023-02-11T00:18:37.315Z,96.85
2023-02-11T00:18:47.826Z,96.85
2023-02-11T00:18:58.824Z,96.85
2023-02-11T00:19:09.322Z,96.85
2023-02-11T00:19:19.825Z,96.85
2023-02-11T00:19:30.327Z,96.85
2023-02-11T00:19:40.856Z,96.85
2023-02-11T00:19:51.330Z,96.85
2023-02-11T00:20:01.843Z,96.75
2023-02-11T00:20:12.340Z,96.79
2023-02-11T00:20:22.840Z,96.85
2023-02-11T00:20:33.338Z,96.85
2023-02-11T00:20:43.856Z,96.85
2023-02-11T00:20:54.833Z,96.95
2023-02-11T00:21:05.829Z,96.95
2023-02-11T00:21:16.343Z,97.06
2023-02-11T00:21:26.889Z,97.06
2023-02-11T00:21:37.340Z,97.16
2023-02-11T00:21:48.352Z,97.16
2023-02-11T00:21:59.340Z,97.16
2023-02-11T00:22:09.844Z,97.16
2023-02-11T00:22:20.382Z,97.16
2023-02-11T00:22:30.844Z,97.16
2023-02-11T00:22:41.350Z,97.16
2023-02-11T00:22:51.852Z,97.16
2023-02-11T00:23:02.367Z,97.06
2023-02-11T00:23:12.851Z,97.06
2023-02-11T00:23:23.358Z,97.06
2023-02-11T00:23:33.854Z,97.06
2023-02-11T00:23:44.360Z,97.10
2023-02-11T00:23:54.907Z,97.10
2023-02-11T00:24:05.365Z,97.10
2023-02-11T00:24:15.864Z,97.06
2023-02-11T00:24:26.370Z,97.06
2023-02-11T00:24:36.874Z,97.06
2023-02-11T00:24:47.368Z,97.06
2023-02-11T00:24:57.875Z,97.06
2023-02-11T00:25:08.873Z,97.06
2023-02-11T00:25:19.375Z,97.06
2023-02-11T00:25:29.878Z,97.06
2023-02-11T00:25:40.432Z,97.06
2023-02-11T00:25:51.193Z,97.06
2023-02-11T00:26:01.398Z,97.06
2023-02-11T00:26:11.882Z,97.06
2023-02-11T00:26:22.388Z,97.06
2023-02-11T00:26:32.892Z,97.16
2023-02-11T00:26:43.398Z,97.16
2023-02-11T00:26:53.934Z,97.16
2023-02-11T00:27:04.396Z,97.16
2023-02-11T00:27:14.892Z,97.16
2023-02-11T00:27:25.402Z,97.27
2023-02-11T00:27:35.903Z,97.16
2023-02-11T00:27:46.414Z,97.16
2023-02-11T00:27:56.954Z,97.16
2023-02-11T00:28:07.428Z,97.16
2023-02-11T00:28:17.964Z,97.06
2023-02-11T00:28:28.485Z,97.06
2023-02-11T00:28:38.920Z,97.06
2023-02-11T00:28:49.416Z,97.06
2023-02-11T00:28:59.922Z,97.06
2023-02-11T00:29:10.428Z,97.06
2023-02-11T00:29:20.950Z,97.06
2023-02-11T00:29:31.431Z,97.16
2023-02-11T00:29:41.934Z,97.16
2023-02-11T00:29:52.435Z,97.27
2023-02-11T00:30:02.935Z,97.27
2023-02-11T00:30:13.445Z,97.27
2023-02-11T00:30:23.943Z,97.27
2023-02-11T00:30:34.598Z,97.27
2023-02-11T00:30:45.113Z,97.27
2023-02-11T00:30:55.606Z,97.27
2023-02-11T00:31:06.069Z,97.16
2023-02-11T00:31:16.662Z,97.16
2023-02-11T00:31:27.140Z,97.16
2023-02-11T00:31:37.613Z,97.06
2023-02-11T00:31:48.132Z,97.06
2023-02-11T00:31:58.548Z,97.06
2023-02-11T00:32:09.016Z,97.06
2023-02-11T00:32:19.481Z,97.06
2023-02-11T00:32:29.964Z,97.06
2023-02-11T00:32:40.471Z,97.06
2023-02-11T00:32:50.972Z,97.16
2023-02-11T00:33:01.475Z,97.16
2023-02-11T00:33:11.984Z,97.27
2023-02-11T00:33:22.482Z,97.27
2023-02-11T00:33:32.983Z,97.27
2023-02-11T00:33:43.486Z,97.37
2023-02-11T00:33:53.976Z,97.47
2023-02-11T00:34:04.483Z,97.47
2023-02-11T00:34:15.005Z,97.58
2023-02-11T00:34:25.497Z,97.58
2023-02-11T00:34:36.008Z,97.58
2023-02-11T00:34:46.497Z,97.58
2023-02-11T00:34:56.991Z,97.58
2023-02-11T00:35:07.500Z,97.58
2023-02-11T00:35:18.004Z,97.58
2023-02-11T00:35:28.515Z,97.58
2023-02-11T00:35:39.011Z,97.58
2023-02-11T00:35:49.946Z,97.58
2023-02-11T00:36:00.029Z,97.68
2023-02-11T00:36:10.527Z,97.68
2023-02-11T00:36:21.028Z,97.68
2023-02-11T00:36:31.523Z,97.68
2023-02-11T00:36:42.024Z,97.68
2023-02-11T00:36:52.528Z,97.68
2023-02-11T00:37:03.075Z,97.68
2023-02-11T00:37:14.050Z,97.68
2023-02-11T00:37:24.539Z,97.68
2023-02-11T00:37:35.036Z,97.68
2023-02-11T00:37:45.535Z,97.68
2023-02-11T00:37:56.042Z,97.68
2023-02-11T00:38:06.540Z,97.58
2023-02-11T00:38:17.547Z,97.58
2023-02-11T00:38:28.041Z,97.58
2023-02-11T00:38:38.548Z,97.58
2023-02-11T00:38:49.053Z,97.58
2023-02-11T00:38:59.551Z,97.58
2023-02-11T00:39:10.050Z,97.58
2023-02-11T00:39:20.549Z,97.47
2023-02-11T00:39:31.055Z,97.47
2023-02-11T00:39:42.052Z,97.47
2023-02-11T00:39:52.552Z,97.37
2023-02-11T00:40:06.315Z,97.37
2023-02-11T00:40:14.053Z,97.37
2023-02-11T00:40:24.578Z,97.27
2023-02-11T00:40:35.064Z,97.27
2023-02-11T00:40:45.564Z,97.27
2023-02-11T00:40:56.050Z,97.27
2023-02-11T00:41:06.566Z,97.27
2023-02-11T00:41:17.070Z,97.27
2023-02-11T00:41:27.583Z,97.27
2023-02-11T00:41:38.062Z,97.27
2023-02-11T00:41:48.571Z,97.27
2023-02-11T00:41:59.078Z,97.27
2023-02-11T00:42:09.588Z,97.27
2023-02-11T00:42:20.075Z,97.27
2023-02-11T00:42:30.581Z,97.22
2023-02-11T00:42:41.081Z,97.16
2023-02-11T00:42:51.588Z,97.16
2023-02-11T00:43:02.088Z,97.16
2023-02-11T00:43:12.611Z,97.16
2023-02-11T00:43:23.617Z,97.12
2023-02-11T00:43:34.092Z,97.12
2023-02-11T00:43:44.615Z,97.06
2023-02-11T00:43:55.086Z,97.06
2023-02-11T00:44:05.588Z,97.06
2023-02-11T00:44:16.590Z,97.06
2023-02-11T00:44:27.096Z,97.06
2023-02-11T00:44:37.593Z,97.16
2023-02-11T00:44:48.596Z,97.16
2023-02-11T00:44:59.099Z,97.16
2023-02-11T00:45:09.601Z,97.16
2023-02-11T00:45:20.115Z,97.16
2023-02-11T00:45:30.596Z,97.16
2023-02-11T00:45:41.096Z,97.16
2023-02-11T00:45:52.103Z,97.16
2023-02-11T00:46:02.682Z,97.16
2023-02-11T00:46:13.146Z,97.16
2023-02-11T00:46:23.718Z,97.16
2023-02-11T00:46:34.145Z,97.16
2023-02-11T00:46:44.697Z,97.16
2023-02-11T00:46:55.108Z,97.16
2023-02-11T00:47:05.611Z,97.16
2023-02-11T00:47:16.624Z,97.16
2023-02-11T00:47:27.159Z,97.16
2023-02-11T00:47:37.639Z,97.16
2023-02-11T00:47:48.119Z,97.06
2023-02-11T00:47:58.621Z,97.06
2023-02-11T00:48:09.121Z,97.06
2023-02-11T00:48:19.625Z,97.06
2023-02-11T00:48:30.129Z,97.06
2023-02-11T00:48:40.635Z,96.95
2023-02-11T00:48:51.131Z,96.95
2023-02-11T00:49:01.638Z,96.95
2023-02-11T00:49:12.184Z,96.95
2023-02-11T00:49:22.655Z,96.95
2023-02-11T00:49:33.143Z,96.95
2023-02-11T00:49:43.652Z,96.95
2023-02-11T00:49:54.156Z,96.95
2023-02-11T00:50:04.686Z,96.95
2023-02-11T00:50:15.191Z,96.85
2023-02-11T00:50:25.660Z,96.85
2023-02-11T00:50:36.164Z,96.85
2023-02-11T00:50:46.674Z,96.85
2023-02-11T00:50:57.194Z,96.85
2023-02-11T00:51:07.691Z,96.95
2023-02-11T00:51:18.181Z,96.95
2023-02-11T00:51:28.716Z,96.95
2023-02-11T00:51:39.188Z,96.95
2023-02-11T00:51:49.698Z,96.95
2023-02-11T00:52:00.193Z,97.06
2023-02-11T00:52:10.720Z,97.06
2023-02-11T00:52:21.198Z,97.16
2023-02-11T00:52:31.708Z,97.16
2023-02-11T00:52:42.199Z,97.16
2023-02-11T00:52:52.710Z,97.27
2023-02-11T00:53:03.210Z,97.27
2023-02-11T00:53:13.719Z,97.27
2023-02-11T00:53:24.717Z,97.27
2023-02-11T00:53:35.215Z,97.27
2023-02-11T00:53:45.716Z,97.27
2023-02-11T00:53:56.229Z,97.27
2023-02-11T00:54:07.214Z,97.27
2023-02-11T00:54:17.724Z,97.37
2023-02-11T00:54:30.050Z,97.37
2023-02-11T00:54:39.215Z,97.37
2023-02-11T00:54:49.716Z,97.37
2023-02-11T00:55:00.218Z,97.37
2023-02-11T00:55:10.731Z,97.47
2023-02-11T00:55:21.226Z,97.47
2023-02-11T00:55:31.729Z,97.47
2023-02-11T00:55:42.229Z,97.47
2023-02-11T00:55:52.741Z,97.47
2023-02-11T00:56:03.234Z,97.47
2023-02-11T00:56:13.752Z,97.47
2023-02-11T00:56:24.248Z,97.47
2023-02-11T00:56:34.738Z,97.47
2023-02-11T00:56:45.731Z,97.37
2023-02-11T00:56:56.227Z,97.47
2023-02-11T00:57:06.734Z,97.47
2023-02-11T00:57:17.229Z,97.47
2023-02-11T00:57:27.746Z,97.47
2023-02-11T00:57:38.243Z,97.58
2023-02-11T00:57:48.744Z,97.58
2023-02-11T00:57:59.745Z,97.58
2023-02-11T00:58:10.249Z,97.58
2023-02-11T00:58:20.743Z,97.68
2023-02-11T00:58:31.252Z,97.68
2023-02-11T00:58:41.766Z,97.68
2023-02-11T00:58:52.252Z,97.78
2023-02-11T00:59:02.806Z,97.78
2023-02-11T00:59:13.278Z,97.78
2023-02-11T00:59:23.756Z,97.78
2023-02-11T00:59:34.263Z,97.89
2023-02-11T00:59:44.762Z,97.89
2023-02-11T00:59:55.266Z,97.99
2023-02-11T01:00:06.264Z,97.99
2023-02-11T01:00:16.759Z,98.10
2023-02-11T01:00:27.255Z,98.10
2023-02-11T01:00:37.764Z,98.10
2023-02-11T01:00:48.769Z,98.10
2023-02-11T01:00:59.882Z,97.99
2023-02-11T01:01:10.276Z,97.99
2023-02-11T01:01:20.833Z,97.99
2023-02-11T01:01:31.321Z,97.99
2023-02-11T01:01:41.809Z,97.99
2023-02-11T01:01:52.769Z,97.99
2023-02-11T01:02:03.763Z,97.99
2023-02-11T01:02:14.269Z,97.99
2023-02-11T01:02:24.768Z,97.99
2023-02-11T01:02:35.262Z,97.95
2023-02-11T01:02:46.283Z,97.95
2023-02-11T01:02:56.764Z,97.95
2023-02-11T01:03:07.769Z,97.95
2023-02-11T01:03:18.810Z,97.95
2023-02-11T01:03:29.274Z,97.95
2023-02-11T01:03:39.779Z,97.95
2023-02-11T01:03:50.272Z,97.95
2023-02-11T01:04:00.785Z,97.85
2023-02-11T01:04:11.266Z,97.85
2023-02-11T01:04:21.776Z,97.85
2023-02-11T01:04:32.275Z,97.85
2023-02-11T01:04:42.784Z,97.85
2023-02-11T01:04:53.297Z,97.74
2023-02-11T01:05:03.848Z,97.74
2023-02-11T01:05:14.322Z,97.74
2023-02-11T01:05:24.821Z,97.74
2023-02-11T01:05:35.859Z,97.64
2023-02-11T01:05:46.291Z,97.64
2023-02-11T01:05:56.781Z,97.64
2023-02-11T01:06:07.302Z,97.64
2023-02-11T01:06:17.789Z,97.64
2023-02-11T01:06:28.789Z,97.53
2023-02-11T01:06:39.290Z,97.53
2023-02-11T01:06:49.789Z,97.53
2023-02-11T01:07:00.788Z,97.53
2023-02-11T01:07:11.283Z,97.53
2023-02-11T01:07:21.786Z,97.43
2023-02-11T01:07:32.303Z,97.43
2023-02-11T01:07:43.295Z,97.43
2023-02-11T01:07:54.292Z,97.47
2023-02-11T01:08:05.294Z,97.47
2023-02-11T01:08:16.291Z,97.43
2023-02-11T01:08:27.318Z,97.47
2023-02-11T01:08:37.800Z,97.47
2023-02-11T01:08:48.301Z,97.43
2023-02-11T01:08:58.809Z,97.47
2023-02-11T01:09:09.296Z,97.47
2023-02-11T01:09:19.799Z,97.47
2023-02-11T01:09:30.296Z,97.53
2023-02-11T01:09:40.803Z,97.58
2023-02-11T01:09:51.306Z,97.58
2023-02-11T01:10:02.306Z,97.53
2023-02-11T01:10:12.806Z,97.53
2023-02-11T01:10:23.313Z,97.53
2023-02-11T01:10:34.306Z,97.58
2023-02-11T01:10:44.824Z,97.58
2023-02-11T01:10:55.322Z,97.53
2023-02-11T01:11:05.807Z,97.58
2023-02-11T01:11:16.309Z,97.53
2023-02-11T01:11:26.831Z,97.58
2023-02-11T01:11:37.344Z,97.58
2023-02-11T01:11:47.820Z,97.58
2023-02-11T01:11:58.328Z,97.58
2023-02-11T01:12:08.819Z,97.58
2023-02-11T01:12:19.823Z,97.58
2023-02-11T01:12:30.325Z,97.58
2023-02-11T01:12:41.331Z,97.53
2023-02-11T01:12:51.821Z,97.53
2023-02-11T01:13:02.327Z,97.53
2023-02-11T01:13:12.860Z,97.58
2023-02-11T01:13:23.320Z,97.58
2023-02-11T01:13:33.829Z,97.53
2023-02-11T01:13:44.320Z,97.53
2023-02-11T01:13:54.836Z,97.64
2023-02-11T01:14:05.329Z,97.64
2023-02-11T01:14:15.825Z,97.64
2023-02-11T01:14:26.331Z,97.64
2023-02-11T01:14:36.834Z,97.68
2023-02-11T01:14:47.337Z,97.64
2023-02-11T01:14:57.837Z,97.64
2023-02-11T01:15:08.350Z,97.53
2023-02-11T01:15:18.840Z,97.53
2023-02-11T01:15:29.377Z,97.53
2023-02-11T01:15:39.927Z,97.53
2023-02-11T01:15:50.768Z,97.43
2023-02-11T01:16:00.903Z,97.53
2023-02-11T01:16:11.537Z,97.43
2023-02-11T01:16:21.956Z,97.43
2023-02-11T01:16:32.350Z,97.43
2023-02-11T01:16:43.350Z,97.43
2023-02-11T01:16:53.853Z,97.43
2023-02-11T01:17:04.349Z,97.43
2023-02-11T01:17:14.850Z,97.43
2023-02-11T01:17:25.351Z,97.43
2023-02-11T01:17:36.372Z,97.43
2023-02-11T01:17:47.351Z,97.43
2023-02-11T01:17:57.847Z,97.43
2023-02-11T01:18:08.344Z,97.43
2023-02-11T01:18:18.876Z,97.43
2023-02-11T01:18:29.352Z,97.43
2023-02-11T01:18:39.865Z,97.33
2023-02-11T01:18:50.402Z,97.33
2023-02-11T01:19:01.348Z,97.33
2023-02-11T01:19:11.871Z,97.33
2023-02-11T01:19:22.855Z,97.22
2023-02-11T01:19:33.346Z,97.22
2023-02-11T01:19:43.852Z,97.22
2023-02-11T01:19:54.360Z,97.22
2023-02-11T01:20:04.856Z,97.22
2023-02-11T01:20:15.350Z,97.22
2023-02-11T01:20:25.860Z,97.22
2023-02-11T01:20:36.355Z,97.22
2023-02-11T01:20:46.859Z,97.22
2023-02-11T01:20:57.357Z,97.22
2023-02-11T01:21:08.369Z,97.22
2023-02-11T01:21:19.384Z,97.22
2023-02-11T01:21:30.362Z,97.22
2023-02-11T01:21:40.866Z,97.22
2023-02-11T01:21:51.371Z,97.22
2023-02-11T01:22:02.384Z,97.22
2023-02-11T01:22:12.872Z,97.22
2023-02-11T01:22:23.394Z,97.22
2023-02-11T01:22:33.892Z,97.22
2023-02-11T01:22:44.414Z,97.22
2023-02-11T01:22:54.881Z,97.22
2023-02-11T01:23:05.388Z,97.22
2023-02-11T01:23:15.886Z,97.22
2023-02-11T01:23:26.395Z,97.22
2023-02-11T01:23:36.888Z,97.22
2023-02-11T01:23:47.394Z,97.22
2023-02-11T01:23:57.901Z,97.22
2023-02-11T01:24:08.397Z,97.22
2023-02-11T01:24:18.900Z,97.22
2023-02-11T01:24:29.408Z,97.12
2023-02-11T01:24:39.910Z,97.12
2023-02-11T01:24:50.413Z,97.12
2023-02-11T01:25:00.911Z,97.12
2023-02-11T01:25:11.415Z,97.12
2023-02-11T01:25:21.938Z,97.12
2023-02-11T01:25:32.414Z,97.12
2023-02-11T01:25:42.920Z,97.12
2023-02-11T01:25:53.610Z,97.12
2023-02-11T01:26:03.931Z,97.12
2023-02-11T01:26:14.429Z,97.12
2023-02-11T01:26:24.930Z,97.22
2023-02-11T01:26:35.424Z,97.22
2023-02-11T01:26:45.938Z,97.22
2023-02-11T01:26:56.428Z,97.22
2023-02-11T01:27:06.935Z,97.22
2023-02-11T01:27:17.443Z,97.22
2023-02-11T01:27:27.944Z,97.33
2023-02-11T01:27:38.447Z,97.33
2023-02-11T01:27:48.959Z,97.43
2023-02-11T01:27:59.487Z,97.43
2023-02-11T01:28:09.989Z,97.43
2023-02-11T01:28:20.486Z,97.53
2023-02-11T01:28:31.107Z,97.53
2023-02-11T01:28:41.457Z,97.64
2023-02-11T01:28:51.975Z,97.64
2023-02-11T01:29:02.473Z,97.64
2023-02-11T01:29:12.969Z,97.64
2023-02-11T01:29:23.470Z,97.64
2023-02-11T01:29:33.996Z,97.64
2023-02-11T01:29:44.490Z,97.64
2023-02-11T01:29:54.988Z,97.74
2023-02-11T01:30:05.483Z,97.64
2023-02-11T01:30:15.988Z,97.64
2023-02-11T01:30:26.492Z,97.64
2023-02-11T01:30:37.024Z,97.64
2023-02-11T01:30:47.561Z,97.64
2023-02-11T01:30:58.124Z,97.64
2023-02-11T01:31:08.573Z,97.64
2023-02-11T01:31:19.049Z,97.64
2023-02-11T01:31:29.600Z,97.64
2023-02-11T01:31:40.059Z,97.64
2023-02-11T01:31:50.555Z,97.64
2023-02-11T01:32:01.109Z,97.53
2023-02-11T01:32:11.572Z,97.53
2023-02-11T01:32:22.026Z,97.53
2023-02-11T01:32:32.524Z,97.43
2023-02-11T01:32:43.063Z,97.43
2023-02-11T01:32:53.530Z,97.43
2023-02-11T01:33:04.027Z,97.43
2023-02-11T01:33:14.532Z,97.43
2023-02-11T01:33:25.032Z,97.33
2023-02-11T01:33:36.047Z,97.33
2023-02-11T01:33:46.535Z,97.33
2023-02-11T01:33:57.043Z,97.33
2023-02-11T01:34:07.552Z,97.33
2023-02-11T01:34:18.043Z,97.33
2023-02-11T01:34:28.549Z,97.33
2023-02-11T01:34:39.085Z,97.33
2023-02-11T01:34:50.046Z,97.33
2023-02-11T01:35:01.048Z,97.33
2023-02-11T01:35:12.049Z,97.33
2023-02-11T01:35:22.545Z,97.33
2023-02-11T01:35:33.049Z,97.33
2023-02-11T01:35:43.566Z,97.33
2023-02-11T01:35:54.050Z,97.33
2023-02-11T01:36:04.580Z,97.33
2023-02-11T01:36:15.055Z,97.33
2023-02-11T01:36:25.573Z,97.43
2023-02-11T01:36:36.065Z,97.43
2023-02-11T01:36:46.556Z,97.43
2023-02-11T01:36:57.052Z,97.43
2023-02-11T01:37:08.056Z,97.43
2023-02-11T01:37:19.071Z,97.53
2023-02-11T01:37:29.567Z,97.53
2023-02-11T01:37:40.065Z,97.53
2023-02-11T01:37:50.561Z,97.53
2023-02-11T01:38:01.055Z,97.53
2023-02-11T01:38:12.082Z,97.64
2023-02-11T01:38:22.552Z,97.64
2023-02-11T01:38:33.093Z,97.64
2023-02-11T01:38:43.553Z,97.64
2023-02-11T01:38:54.116Z,97.64
2023-02-11T01:39:05.055Z,97.64
2023-02-11T01:39:15.574Z,97.64
2023-02-11T01:39:26.059Z,97.64
2023-02-11T01:39:36.586Z,97.64
2023-02-11T01:39:47.579Z,97.74
2023-02-11T01:39:58.565Z,97.74
2023-02-11T01:40:09.061Z,97.74
2023-02-11T01:40:19.568Z,97.74
2023-02-11T01:40:30.097Z,97.85
2023-02-11T01:40:41.094Z,97.85
2023-02-11T01:40:52.054Z,97.85
2023-02-11T01:41:02.561Z,97.85
2023-02-11T01:41:13.060Z,97.85
2023-02-11T01:41:23.564Z,97.85
2023-02-11T01:41:34.063Z,97.85
2023-02-11T01:41:44.569Z,97.85
2023-02-11T01:41:55.074Z,97.85
2023-02-11T01:42:05.569Z,97.74
2023-02-11T01:42:16.063Z,97.74
2023-02-11T01:42:27.067Z,97.74
2023-02-11T01:42:37.573Z,97.74
2023-02-11T01:42:50.900Z,97.74
2023-02-11T01:42:58.570Z,97.74
2023-02-11T01:43:09.069Z,97.74
2023-02-11T01:43:19.578Z,97.74
2023-02-11T01:43:30.578Z,97.74
2023-02-11T01:43:41.080Z,97.64
2023-02-11T01:43:51.585Z,97.64
2023-02-11T01:44:02.095Z,97.64
2023-02-11T01:44:12.576Z,97.64
2023-02-11T01:44:23.079Z,97.64
2023-02-11T01:44:33.577Z,97.64
2023-02-11T01:44:44.079Z,97.64
2023-02-11T01:44:54.574Z,97.64
2023-02-11T01:45:05.076Z,97.64
2023-02-11T01:45:15.577Z,97.64
2023-02-11T01:45:26.107Z,97.64
2023-02-11T01:45:36.596Z,97.64
2023-02-11T01:45:47.638Z,97.64
2023-02-11T01:45:58.116Z,97.53
2023-02-11T01:46:08.619Z,97.53
2023-02-11T01:46:19.123Z,97.43
2023-02-11T01:46:29.685Z,97.43
2023-02-11T01:46:40.133Z,97.43
2023-02-11T01:46:50.688Z,97.43
2023-02-11T01:47:01.104Z,97.43
2023-02-11T01:47:11.585Z,97.43
2023-02-11T01:47:22.585Z,97.43
2023-02-11T01:47:33.094Z,97.43
2023-02-11T01:47:43.585Z,97.38
2023-02-11T01:47:54.130Z,97.49
2023-02-11T01:48:04.596Z,97.53
2023-02-11T01:48:15.101Z,97.53
2023-02-11T01:48:26.113Z,97.49
2023-02-11T01:48:36.613Z,97.49
2023-02-11T01:48:47.138Z,97.59
2023-02-11T01:48:57.691Z,97.59
2023-02-11T01:49:08.658Z,97.64
2023-02-11T01:49:19.174Z,97.59
2023-02-11T01:49:29.681Z,97.59
2023-02-11T01:49:40.105Z,97.59
2023-02-11T01:49:50.612Z,97.59
2023-02-11T01:50:01.127Z,97.59
2023-02-11T01:50:11.603Z,97.59
2023-02-11T01:50:22.113Z,97.70
2023-02-11T01:50:32.613Z,97.70
2023-02-11T01:50:43.108Z,97.70
2023-02-11T01:50:53.624Z,97.70
2023-02-11T01:51:04.126Z,97.80
2023-02-11T01:51:14.644Z,97.80
2023-02-11T01:51:25.128Z,97.80
2023-02-11T01:51:35.643Z,97.80
2023-02-11T01:51:46.119Z,97.80
2023-02-11T01:51:56.626Z,97.80
2023-02-11T01:52:07.127Z,97.80
2023-02-11T01:52:17.644Z,97.80
2023-02-11T01:52:28.127Z,97.80
2023-02-11T01:52:39.127Z,97.80
2023-02-11T01:52:49.625Z,97.80
2023-02-11T01:53:00.135Z,97.80
2023-02-11T01:53:10.629Z,97.80
2023-02-11T01:53:21.148Z,97.80
2023-02-11T01:53:31.629Z,97.80
2023-02-11T01:53:42.140Z,97.80
2023-02-11T01:53:52.638Z,97.80
2023-02-11T01:54:03.136Z,97.91
2023-02-11T01:54:13.656Z,97.91
2023-02-11T01:54:24.636Z,97.91
2023-02-11T01:54:35.140Z,97.91
2023-02-11T01:54:45.638Z,98.01
2023-02-11T01:54:56.635Z,98.01
2023-02-11T01:55:07.636Z,98.01
2023-02-11T01:55:18.136Z,98.01
2023-02-11T01:55:28.640Z,98.11
2023-02-11T01:55:39.136Z,98.11
2023-02-11T01:55:49.848Z,98.11
2023-02-11T01:56:00.148Z,98.11
2023-02-11T01:56:11.147Z,98.11
2023-02-11T01:56:21.645Z,98.22
2023-02-11T01:56:32.175Z,98.22
2023-02-11T01:56:42.643Z,98.22
2023-02-11T01:56:53.164Z,98.22
2023-02-11T01:57:03.652Z,98.22
2023-02-11T01:57:14.155Z,98.22
2023-02-11T01:57:24.696Z,98.22
2023-02-11T01:57:35.162Z,98.22
2023-02-11T01:57:45.654Z,98.32
2023-02-11T01:57:56.189Z,98.32
2023-02-11T01:58:06.660Z,98.32
2023-02-11T01:58:17.171Z,98.32
2023-02-11T01:58:28.174Z,98.32
2023-02-11T01:58:38.670Z,98.32
2023-02-11T01:58:49.177Z,98.32
2023-02-11T01:58:59.678Z,98.32
2023-02-11T01:59:10.184Z,98.32
2023-02-11T01:59:20.682Z,98.32
2023-02-11T01:59:31.196Z,98.32
2023-02-11T01:59:41.684Z,98.32
2023-02-11T01:59:52.190Z,98.32
2023-02-11T02:00:02.687Z,98.32
2023-02-11T02:00:13.221Z,98.32
2023-02-11T02:00:24.320Z,98.32
2023-02-11T02:00:35.189Z,98.32
2023-02-11T02:00:46.195Z,98.32
2023-02-11T02:00:56.695Z,98.32
2023-02-11T02:01:07.192Z,98.32
2023-02-11T02:01:17.750Z,98.32
2023-02-11T02:01:28.703Z,98.32
2023-02-11T02:01:39.750Z,98.32
2023-02-11T02:01:50.753Z,98.22
2023-02-11T02:02:01.799Z,98.22
2023-02-11T02:02:12.208Z,98.22
2023-02-11T02:02:22.698Z,98.22
2023-02-11T02:02:33.724Z,98.22
2023-02-11T02:02:44.201Z,98.22
2023-02-11T02:02:54.707Z,98.22
2023-02-11T02:03:05.215Z,98.22
2023-02-11T02:03:16.277Z,98.22
2023-02-11T02:03:26.738Z,98.22
2023-02-11T02:03:37.257Z,98.22
2023-02-11T02:03:47.789Z,98.22
2023-02-11T02:03:58.298Z,98.22
2023-02-11T02:04:09.210Z,98.22
2023-02-11T02:04:19.713Z,98.22
2023-02-11T02:04:30.211Z,98.22
2023-02-11T02:04:41.216Z,98.22
2023-02-11T02:04:52.215Z,98.22
2023-02-11T02:05:03.208Z,98.22
2023-02-11T02:05:13.707Z,98.22
2023-02-11T02:05:24.235Z,98.11
2023-02-11T02:05:34.722Z,98.22
2023-02-11T02:05:45.717Z,98.11
2023-02-11T02:05:56.721Z,98.11
2023-02-11T02:06:07.711Z,98.11
2023-02-11T02:06:18.223Z,98.11
2023-02-11T02:06:28.721Z,98.11
2023-02-11T02:06:39.241Z,98.01
2023-02-11T02:06:49.719Z,98.01
2023-02-11T02:07:00.246Z,98.01
2023-02-11T02:07:10.720Z,97.91
2023-02-11T02:07:21.221Z,97.91
2023-02-11T02:07:31.728Z,97.91
2023-02-11T02:07:42.227Z,97.80
2023-02-11T02:07:53.227Z,97.80
2023-02-11T02:08:03.721Z,97.80
2023-02-11T02:08:14.231Z,97.70
2023-02-11T02:08:24.731Z,97.70
2023-02-11T02:08:35.225Z,97.70
2023-02-11T02:08:45.741Z,97.70
2023-02-11T02:08:56.230Z,97.59
2023-02-11T02:09:06.729Z,97.59
2023-02-11T02:09:17.231Z,97.59
2023-02-11T02:09:27.733Z,97.59
2023-02-11T02:09:38.735Z,97.59
2023-02-11T02:09:49.725Z,97.59
2023-02-11T02:10:00.231Z,97.59
2023-02-11T02:10:11.227Z,97.59
2023-02-11T02:10:21.725Z,97.59
2023-02-11T02:10:32.225Z,97.59
2023-02-11T02:10:43.228Z,97.59
2023-02-11T02:10:54.237Z,97.59
2023-02-11T02:11:04.735Z,97.59
2023-02-11T02:11:15.233Z,97.49
2023-02-11T02:11:25.729Z,97.49
2023-02-11T02:11:36.267Z,97.49
2023-02-11T02:11:46.741Z,97.49
2023-02-11T02:11:57.737Z,97.49
2023-02-11T02:12:08.736Z,97.49
2023-02-11T02:12:19.251Z,97.59
2023-02-11T02:12:29.738Z,97.59
2023-02-11T02:12:40.250Z,97.59
2023-02-11T02:12:51.244Z,97.59
2023-02-11T02:13:02.242Z,97.59
2023-02-11T02:13:12.764Z,97.59
2023-02-11T02:13:23.250Z,97.59
2023-02-11T02:13:33.767Z,97.59
2023-02-11T02:13:44.741Z,97.59
2023-02-11T02:13:55.244Z,97.59
2023-02-11T02:14:05.747Z,97.59
2023-02-11T02:14:16.241Z,97.59
2023-02-11T02:14:26.747Z,97.49
2023-02-11T02:14:37.239Z,97.49
2023-02-11T02:14:48.241Z,97.49
2023-02-11T02:14:58.749Z,97.49
2023-02-11T02:15:09.745Z,97.49
2023-02-11T02:15:20.747Z,97.59
2023-02-11T02:15:31.243Z,97.59
2023-02-11T02:15:41.790Z,97.59
2023-02-11T02:15:52.609Z,97.59
2023-02-11T02:16:02.830Z,97.59
2023-02-11T02:16:13.311Z,97.59